Аэропорт: Наримановка. Костанай

ICAO: UAUU

METAR:
2019-07-24 01:00:00
UAUU 240100Z 32005MPS CAVOK 15/13 Q1009 NOSIG RMK QFE741/0988
METAR:
2019-07-23 23:00:00
TAF UAUU 232300Z 2400/2409 32005MPS 9999 SCT030CB TEMPO 2400/2403 3100 BR BKN011CB TEMPO 2403/2409 33005G10MPS